Clarks Fork, Missouri
Current Conditions -  °F | °C
As of 9:55 AM on Friday 31 Oct 2014 (Local Time) from KVER Reporting Station
Clear Clear  
Wind Chill: 31°   Ceiling: Unl
Heat Index: 39°   Visibility: 10mi
Dew Point: 18°   Wind: 15mph
Humidity: 43%   Direction: 360°N
Pressure: 30.4"   Gusts: 23mph
Location:  38.8814°N, 92.7602°W
Report Text: KVER 311455Z AUTO 36013G20KT 10SM CLR 04/M08 A3040 RMK AO2 T00401077
Loading
Personal Weather Stations






























Interactive Weather Map
Tropical Storm Tracking
New forecast layout! Learn more

10-Day Weather Forecast

Advertisements
Track Severe Weather on mobile